createdAt,value
2022-07-25T06:31:00.441Z,101292.53
2022-07-25T06:33:37.766Z,101299.59
2022-07-25T06:36:14.867Z,101294.88
2022-07-25T06:38:52.019Z,101292.53
2022-07-25T06:41:28.687Z,101286.78
2022-07-25T06:44:06.100Z,101281.09
2022-07-25T06:46:45.710Z,101282.09
2022-07-25T06:49:22.809Z,101271.63
2022-07-25T06:51:59.483Z,101267.69
2022-07-25T06:54:36.702Z,101267.88
2022-07-25T06:57:13.556Z,101262.59
2022-07-25T06:59:50.783Z,101262.56
2022-07-25T07:02:30.530Z,101258.66
2022-07-25T07:05:09.009Z,101257.13
2022-07-25T07:07:47.980Z,101260.97
2022-07-25T07:10:26.736Z,101256.53
2022-07-25T07:13:11.277Z,101252.31
2022-07-25T07:15:51.424Z,101255.84
2022-07-25T07:18:32.102Z,101249.38
2022-07-25T07:21:11.163Z,101242.53
2022-07-25T07:23:58.358Z,101231.81
2022-07-25T07:26:36.297Z,101232.75
2022-07-25T07:29:13.584Z,101228.09
2022-07-25T07:31:50.843Z,101224.69
2022-07-25T07:34:30.297Z,101226.47
2022-07-25T07:37:07.398Z,101224.09
2022-07-25T07:39:44.335Z,101225.22
2022-07-25T07:42:21.457Z,101234.69
2022-07-25T07:44:58.349Z,101222.91
2022-07-25T07:47:35.336Z,101223.94
2022-07-25T07:50:14.996Z,101219.94
2022-07-25T07:52:53.410Z,101212.94
2022-07-25T07:55:42.836Z,101212.69
2022-07-25T07:58:22.486Z,101215.69
2022-07-25T08:00:59.341Z,101206.34
2022-07-25T08:03:36.543Z,101205.78
2022-07-25T08:06:15.939Z,101209.69
2022-07-25T08:08:53.079Z,101211.84
2022-07-25T08:11:30.138Z,101207.78
2022-07-25T08:14:07.805Z,101208.88
2022-07-25T08:16:44.764Z,101195.88
2022-07-25T08:19:21.820Z,101207.66
2022-07-25T08:22:01.192Z,101204.84
2022-07-25T08:24:38.362Z,101197.16
2022-07-25T08:27:15.085Z,101193.50
2022-07-25T08:29:53.505Z,101199.84
2022-07-25T08:32:30.367Z,101200.19
2022-07-25T08:35:11.369Z,101198.22
2022-07-25T08:37:52.117Z,101206.25
2022-07-25T08:40:31.611Z,101207.16
2022-07-25T08:43:09.214Z,101200.03
2022-07-25T08:45:50.261Z,101202.44
2022-07-25T08:48:30.117Z,101213.34
2022-07-25T08:51:07.801Z,101210.56
2022-07-25T08:53:48.512Z,101189.56
2022-07-25T08:56:25.981Z,101192.09
2022-07-25T08:59:03.752Z,101193.53
2022-07-25T09:01:43.970Z,101197.38
2022-07-25T09:04:21.555Z,101201.63
2022-07-25T09:06:58.750Z,101196.66
2022-07-25T09:09:42.093Z,101199.25
2022-07-25T09:12:28.462Z,101182.66
2022-07-25T09:15:05.230Z,101187.28
2022-07-25T09:17:54.732Z,101184.63
2022-07-25T09:20:43.781Z,101185.28
2022-07-25T09:23:38.380Z,101178.63
2022-07-25T09:26:19.101Z,101178.66
2022-07-25T09:28:57.322Z,101173.28
2022-07-25T09:31:41.017Z,101179.13
2022-07-25T09:34:34.334Z,101169.06
2022-07-25T09:37:12.846Z,101172.22
2022-07-25T09:39:54.025Z,101168.69
2022-07-25T09:42:36.731Z,101168.91
2022-07-25T09:45:16.574Z,101152.78
2022-07-25T09:47:59.210Z,101163.03
2022-07-25T09:50:37.287Z,101154.22
2022-07-25T09:53:15.219Z,101162.00
2022-07-25T09:55:53.725Z,101149.81
2022-07-25T09:58:33.915Z,101147.91
2022-07-25T10:01:11.979Z,101159.41
2022-07-25T10:03:55.625Z,101151.41
2022-07-25T10:06:43.266Z,101130.81
2022-07-25T10:09:20.639Z,101131.66
2022-07-25T10:12:12.545Z,101134.38
2022-07-25T10:15:11.782Z,101135.63
2022-07-25T10:17:50.696Z,101135.16
2022-07-25T10:20:32.685Z,101141.59
2022-07-25T10:23:22.458Z,101136.09
2022-07-25T10:26:10.555Z,101121.41
2022-07-25T10:28:50.085Z,101128.47
2022-07-25T10:31:38.846Z,101122.53
2022-07-25T10:34:16.988Z,101121.63
2022-07-25T10:36:58.896Z,101120.78
2022-07-25T10:39:45.021Z,101117.78
2022-07-25T10:42:27.106Z,101109.34
2022-07-25T10:45:09.822Z,101108.00
2022-07-25T10:47:57.866Z,101113.34
2022-07-25T10:50:54.842Z,101112.50
2022-07-25T10:53:40.117Z,101112.50
2022-07-25T10:56:20.352Z,101115.41
2022-07-25T10:58:59.087Z,101112.84
2022-07-25T11:01:38.838Z,101106.75
2022-07-25T11:04:20.917Z,101087.13
2022-07-25T11:06:58.286Z,101093.59
2022-07-25T11:09:35.039Z,101095.44
2022-07-25T11:12:17.472Z,101079.22
2022-07-25T11:14:54.307Z,101086.47
2022-07-25T11:17:31.340Z,101075.09
2022-07-25T11:20:13.853Z,101078.81
2022-07-25T11:22:56.968Z,101069.84
2022-07-25T11:25:33.900Z,101068.13
2022-07-25T11:28:10.977Z,101070.97
2022-07-25T11:30:48.006Z,101058.81
2022-07-25T11:33:25.105Z,101056.88
2022-07-25T11:36:05.159Z,101047.66
2022-07-25T11:38:43.531Z,101049.59
2022-07-25T11:41:30.876Z,101045.44
2022-07-25T11:44:08.398Z,101038.91
2022-07-25T11:46:48.358Z,101034.75
2022-07-25T11:49:25.497Z,101020.66
2022-07-25T11:52:07.585Z,101008.69
2022-07-25T11:54:54.329Z,101006.81
2022-07-25T11:57:33.977Z,101002.06
2022-07-25T12:00:19.551Z,100988.25
2022-07-25T12:02:56.697Z,100996.38
2022-07-25T12:05:37.117Z,100999.44
2022-07-25T12:08:18.227Z,100994.22
2022-07-25T12:10:56.157Z,101002.31
2022-07-25T12:13:34.446Z,100988.84
2022-07-25T12:16:12.702Z,100980.38
2022-07-25T12:18:49.518Z,100979.72
2022-07-25T12:21:27.009Z,100975.47
2022-07-25T12:24:06.761Z,100977.28
2022-07-25T12:26:43.857Z,100970.81
2022-07-25T12:29:20.548Z,100966.66
2022-07-25T12:31:57.599Z,100951.78
2022-07-25T12:34:35.005Z,100960.19
2022-07-25T12:37:12.147Z,100953.44
2022-07-25T12:39:51.652Z,100965.63
2022-07-25T12:42:29.247Z,100954.84
2022-07-25T12:45:06.147Z,100946.22
2022-07-25T12:47:43.317Z,100932.47
2022-07-25T12:50:21.196Z,100940.63
2022-07-25T12:52:58.318Z,100929.06
2022-07-25T12:55:37.975Z,100931.22
2022-07-25T12:58:15.588Z,100928.88
2022-07-25T13:00:52.489Z,100932.97
2022-07-25T13:03:29.645Z,100931.53
2022-07-25T13:06:07.677Z,100918.03
2022-07-25T13:08:44.768Z,100915.50
2022-07-25T13:11:24.247Z,100913.22
2022-07-25T13:14:01.456Z,100918.59
2022-07-25T13:16:39.302Z,100906.06
2022-07-25T13:19:17.517Z,100909.38
2022-07-25T13:21:54.325Z,100905.50
2022-07-25T13:24:31.581Z,100894.59
2022-07-25T13:27:11.942Z,100891.25
2022-07-25T13:29:54.671Z,100890.56
2022-07-25T13:32:32.168Z,100882.41
2022-07-25T13:35:11.187Z,100878.03
2022-07-25T13:37:48.150Z,100869.91
2022-07-25T13:40:25.489Z,100859.59
2022-07-25T13:43:04.891Z,100869.63
2022-07-25T13:45:42.678Z,100858.66
2022-07-25T13:48:29.563Z,100845.72
2022-07-25T13:51:08.004Z,100846.31
2022-07-25T13:53:45.231Z,100841.09
2022-07-25T13:56:22.405Z,100841.09
2022-07-25T13:59:01.837Z,100845.38
2022-07-25T14:01:39.215Z,100846.03
2022-07-25T14:04:16.277Z,100832.91
2022-07-25T14:06:54.990Z,100831.09
2022-07-25T14:09:31.796Z,100820.22
2022-07-25T14:12:09.758Z,100821.66
2022-07-25T14:14:49.270Z,100820.16
2022-07-25T14:17:30.118Z,100819.03
2022-07-25T14:20:08.527Z,100809.59
2022-07-25T14:22:46.055Z,100809.75
2022-07-25T14:25:23.131Z,100807.31
2022-07-25T14:28:00.438Z,100815.72
2022-07-25T14:30:39.860Z,100806.13
2022-07-25T14:33:17.281Z,100811.41
2022-07-25T14:35:54.174Z,100803.97
2022-07-25T14:38:31.322Z,100791.53
2022-07-25T14:41:12.828Z,100791.00
2022-07-25T14:43:50.402Z,100781.97
2022-07-25T14:46:30.375Z,100783.03
2022-07-25T14:49:09.005Z,100782.81
2022-07-25T14:51:47.342Z,100772.00
2022-07-25T14:54:26.163Z,100762.41
2022-07-25T14:57:04.839Z,100762.63
2022-07-25T14:59:42.050Z,100759.66
2022-07-25T15:02:21.571Z,100758.81
2022-07-25T15:04:59.035Z,100759.38
2022-07-25T15:07:36.561Z,100753.25
2022-07-25T15:10:14.761Z,100746.84
2022-07-25T15:13:07.872Z,100742.66
2022-07-25T15:15:49.885Z,100744.03
2022-07-25T15:18:30.294Z,100724.28
2022-07-25T15:21:08.126Z,100734.41
2022-07-25T15:23:45.842Z,100726.03
2022-07-25T15:26:23.874Z,100722.06
2022-07-25T15:29:01.184Z,100722.59
2022-07-25T15:31:38.508Z,100728.41
2022-07-25T15:34:18.083Z,100716.00
2022-07-25T15:36:55.432Z,100719.13
2022-07-25T15:39:32.178Z,100711.13
2022-07-25T15:42:09.861Z,100711.25
2022-07-25T15:44:46.638Z,100710.53
2022-07-25T15:47:23.699Z,100699.81
2022-07-25T15:50:03.190Z,100717.06
2022-07-25T15:52:40.448Z,100705.25
2022-07-25T15:55:17.221Z,100712.00
2022-07-25T15:57:55.978Z,100703.97
2022-07-25T16:00:33.026Z,100694.66
2022-07-25T16:03:11.518Z,100690.91
2022-07-25T16:05:50.958Z,100681.44
2022-07-25T16:08:28.133Z,100672.13
2022-07-25T16:11:04.938Z,100682.16
2022-07-25T16:13:42.319Z,100678.19
2022-07-25T16:16:22.305Z,100678.13
2022-07-25T16:19:00.459Z,100672.97
2022-07-25T16:21:40.298Z,100663.38
2022-07-25T16:24:17.478Z,100656.31
2022-07-25T16:26:54.437Z,100647.19
2022-07-25T16:29:31.555Z,100649.75
2022-07-25T16:32:10.050Z,100638.72
2022-07-25T16:34:47.649Z,100643.53
2022-07-25T16:37:27.647Z,100644.88
2022-07-25T16:40:05.032Z,100632.03
2022-07-25T16:42:41.800Z,100629.41
2022-07-25T16:45:18.938Z,100628.25
2022-07-25T16:47:55.715Z,100617.78
2022-07-25T16:50:32.818Z,100624.88
2022-07-25T16:53:12.228Z,100634.59
2022-07-25T16:55:49.313Z,100626.50
2022-07-25T16:58:26.058Z,100630.00
2022-07-25T17:01:03.117Z,100619.97
2022-07-25T17:03:40.079Z,100614.06
2022-07-25T17:06:17.401Z,100617.06
2022-07-25T17:08:57.268Z,100609.25
2022-07-25T17:11:35.027Z,100612.44
2022-07-25T17:14:12.614Z,100606.88
2022-07-25T17:16:51.828Z,100595.22
2022-07-25T17:19:29.373Z,100598.94
2022-07-25T17:22:06.760Z,100593.28
2022-07-25T17:24:46.832Z,100595.75
2022-07-25T17:27:24.150Z,100590.84
2022-07-25T17:30:02.529Z,100594.66
2022-07-25T17:32:40.219Z,100588.50
2022-07-25T17:35:17.048Z,100587.34
2022-07-25T17:37:54.302Z,100574.03
2022-07-25T17:40:33.799Z,100568.47
2022-07-25T17:43:10.874Z,100569.19
2022-07-25T17:45:47.769Z,100562.31
2022-07-25T17:48:24.847Z,100559.00
2022-07-25T17:51:01.726Z,100560.53
2022-07-25T17:53:38.977Z,100560.78
2022-07-25T17:56:18.337Z,100561.63
2022-07-25T17:58:55.470Z,100557.69
2022-07-25T18:01:32.496Z,100553.78
2022-07-25T18:04:10.163Z,100551.91
2022-07-25T18:06:47.118Z,100551.44
2022-07-25T18:09:27.888Z,100553.25
2022-07-25T18:12:08.069Z,100551.47
2022-07-25T18:14:45.220Z,100551.22
2022-07-25T18:17:21.971Z,100554.81
2022-07-25T18:19:59.107Z,100552.44
2022-07-25T18:22:35.831Z,100551.69
2022-07-25T18:25:15.420Z,100552.66
2022-07-25T18:27:54.811Z,100556.78
2022-07-25T18:30:32.220Z,100554.19
2022-07-25T18:33:09.183Z,100558.59
2022-07-25T18:35:46.400Z,100560.34
2022-07-25T18:38:23.619Z,100554.63
2022-07-25T18:41:26.284Z,100554.16
2022-07-25T18:44:01.369Z,100558.72
2022-07-25T18:46:39.147Z,100561.78
2022-07-25T18:49:18.046Z,100553.91
2022-07-25T18:51:55.099Z,100552.81
2022-07-25T18:54:31.998Z,100563.81
2022-07-25T18:57:09.666Z,100554.66
2022-07-25T18:59:49.266Z,100550.97
2022-07-25T19:02:26.817Z,100555.69
2022-07-25T19:05:03.754Z,100547.75
2022-07-25T19:07:40.834Z,100555.78
2022-07-25T19:10:17.767Z,100558.38
2022-07-25T19:12:54.897Z,100550.03
2022-07-25T19:15:34.630Z,100551.81
2022-07-25T19:18:11.644Z,100544.78
2022-07-25T19:20:48.377Z,100540.84
2022-07-25T19:23:25.417Z,100537.13
2022-07-25T19:26:02.329Z,100529.25
2022-07-25T19:28:39.879Z,100532.06
2022-07-25T19:31:19.792Z,100537.91
2022-07-25T19:33:57.027Z,100526.72
2022-07-25T19:36:33.777Z,100528.47
2022-07-25T19:39:11.909Z,100528.06
2022-07-25T19:41:48.797Z,100525.41
2022-07-25T19:44:25.934Z,100509.75
2022-07-25T19:47:11.260Z,100523.22
2022-07-25T19:49:48.852Z,100521.59
2022-07-25T19:52:25.638Z,100517.72
2022-07-25T19:55:03.293Z,100512.09
2022-07-25T19:57:40.921Z,100503.31
2022-07-25T20:00:19.207Z,100507.13
2022-07-25T20:02:58.925Z,100514.31
2022-07-25T20:05:36.424Z,100513.06
2022-07-25T20:08:13.277Z,100513.97
2022-07-25T20:10:50.615Z,100514.63
2022-07-25T20:13:28.324Z,100504.84
2022-07-25T20:16:06.174Z,100505.28
2022-07-25T20:18:45.889Z,100504.06
2022-07-25T20:21:23.227Z,100506.00
2022-07-25T20:24:00.834Z,100502.03
2022-07-25T20:26:37.966Z,100507.75
2022-07-25T20:29:15.004Z,100506.50
2022-07-25T20:31:53.094Z,100513.84
2022-07-25T20:34:33.112Z,100517.22
2022-07-25T20:37:10.365Z,100510.94
2022-07-25T20:39:48.239Z,100513.03
2022-07-25T20:42:26.074Z,100498.03
2022-07-25T20:45:03.228Z,100502.03
2022-07-25T20:47:40.496Z,100500.56
2022-07-25T20:50:20.325Z,100500.38
2022-07-25T20:52:57.996Z,100492.69
2022-07-25T20:55:34.782Z,100496.88
2022-07-25T20:58:12.184Z,100486.88
2022-07-25T21:00:49.353Z,100483.97
2022-07-25T21:03:26.554Z,100479.19
2022-07-25T21:06:06.120Z,100472.31
2022-07-25T21:08:43.595Z,100466.88
2022-07-25T21:11:20.625Z,100471.91
2022-07-25T21:13:58.555Z,100461.47
2022-07-25T21:16:36.302Z,100461.69
2022-07-25T21:19:13.445Z,100466.50
2022-07-25T21:21:53.792Z,100458.16
2022-07-25T21:24:30.918Z,100453.19
2022-07-25T21:27:07.925Z,100463.22
2022-07-25T21:29:45.122Z,100443.38
2022-07-25T21:32:23.541Z,100447.78
2022-07-25T21:35:00.858Z,100447.38
2022-07-25T21:37:40.479Z,100445.47
2022-07-25T21:40:18.079Z,100444.03
2022-07-25T21:42:55.072Z,100442.38
2022-07-25T21:45:32.339Z,100439.22
2022-07-25T21:48:10.455Z,100434.25
2022-07-25T21:50:46.138Z,100422.75
